sensor_id;sensor_type;location;lat;lon;timestamp;P1;durP1;ratioP1;P2;durP2;ratioP2
34872;SDS011;21084;51.098;14.506;2022-07-29T00:00:14;11.07;;;3.80;;
34872;SDS011;21084;51.098;14.506;2022-07-29T00:02:16;6.03;;;3.10;;
34872;SDS011;21084;51.098;14.506;2022-07-29T00:04:18;7.55;;;3.53;;
34872;SDS011;21084;51.098;14.506;2022-07-29T00:06:21;7.88;;;3.05;;
34872;SDS011;21084;51.098;14.506;2022-07-29T00:08:25;13.23;;;3.25;;
34872;SDS011;21084;51.098;14.506;2022-07-29T00:10:27;12.13;;;3.88;;
34872;SDS011;21084;51.098;14.506;2022-07-29T00:12:29;6.93;;;3.03;;
34872;SDS011;21084;51.098;14.506;2022-07-29T00:14:32;8.95;;;3.55;;
34872;SDS011;21084;51.098;14.506;2022-07-29T00:16:34;7.20;;;3.38;;
34872;SDS011;21084;51.098;14.506;2022-07-29T00:18:36;8.55;;;3.40;;
34872;SDS011;21084;51.098;14.506;2022-07-29T00:20:39;8.68;;;3.35;;
34872;SDS011;21084;51.098;14.506;2022-07-29T00:22:41;6.43;;;3.28;;
34872;SDS011;21084;51.098;14.506;2022-07-29T00:24:44;4.70;;;3.30;;
34872;SDS011;21084;51.098;14.506;2022-07-29T00:26:46;8.15;;;3.28;;
34872;SDS011;21084;51.098;14.506;2022-07-29T00:28:49;9.68;;;4.00;;
34872;SDS011;21084;51.098;14.506;2022-07-29T00:30:51;9.77;;;3.40;;
34872;SDS011;21084;51.098;14.506;2022-07-29T00:32:53;9.45;;;3.80;;
34872;SDS011;21084;51.098;14.506;2022-07-29T00:34:55;10.95;;;3.80;;
34872;SDS011;21084;51.098;14.506;2022-07-29T00:36:57;9.40;;;3.65;;
34872;SDS011;21084;51.098;14.506;2022-07-29T00:38:59;12.63;;;3.35;;
34872;SDS011;21084;51.098;14.506;2022-07-29T00:41:03;10.50;;;3.58;;
34872;SDS011;21084;51.098;14.506;2022-07-29T00:43:05;17.27;;;3.35;;
34872;SDS011;21084;51.098;14.506;2022-07-29T00:45:08;12.43;;;3.50;;
34872;SDS011;21084;51.098;14.506;2022-07-29T00:47:10;11.77;;;3.53;;
34872;SDS011;21084;51.098;14.506;2022-07-29T00:49:13;9.55;;;3.60;;
34872;SDS011;21084;51.098;14.506;2022-07-29T00:51:15;7.93;;;3.03;;
34872;SDS011;21084;51.098;14.506;2022-07-29T00:53:17;11.95;;;3.83;;
34872;SDS011;21084;51.098;14.506;2022-07-29T00:55:21;9.15;;;3.65;;
34872;SDS011;21084;51.098;14.506;2022-07-29T00:57:24;8.52;;;3.88;;
34872;SDS011;21084;51.098;14.506;2022-07-29T00:59:26;9.38;;;3.47;;
34872;SDS011;21084;51.098;14.506;2022-07-29T01:01:35;7.65;;;3.55;;
34872;SDS011;21084;51.098;14.506;2022-07-29T01:03:37;11.15;;;3.50;;
34872;SDS011;21084;51.098;14.506;2022-07-29T01:05:39;6.35;;;3.20;;
34872;SDS011;21084;51.098;14.506;2022-07-29T01:07:52;10.43;;;3.70;;
34872;SDS011;21084;51.098;14.506;2022-07-29T01:09:54;7.90;;;3.53;;
34872;SDS011;21084;51.098;14.506;2022-07-29T01:11:56;7.80;;;4.25;;
34872;SDS011;21084;51.098;14.506;2022-07-29T01:14:00;14.73;;;4.35;;
34872;SDS011;21084;51.098;14.506;2022-07-29T01:16:03;6.47;;;3.40;;
34872;SDS011;21084;51.098;14.506;2022-07-29T01:18:10;6.47;;;3.75;;
34872;SDS011;21084;51.098;14.506;2022-07-29T01:20:24;8.48;;;3.30;;
34872;SDS011;21084;51.098;14.506;2022-07-29T01:22:35;15.05;;;3.60;;
34872;SDS011;21084;51.098;14.506;2022-07-29T01:24:40;9.85;;;3.70;;
34872;SDS011;21084;51.098;14.506;2022-07-29T01:26:47;7.05;;;3.47;;
34872;SDS011;21084;51.098;14.506;2022-07-29T01:29:02;8.75;;;3.13;;
34872;SDS011;21084;51.098;14.506;2022-07-29T01:31:08;4.85;;;3.55;;
34872;SDS011;21084;51.098;14.506;2022-07-29T01:33:17;5.70;;;3.28;;
34872;SDS011;21084;51.098;14.506;2022-07-29T01:35:20;5.97;;;3.50;;
34872;SDS011;21084;51.098;14.506;2022-07-29T01:37:24;8.32;;;3.45;;
34872;SDS011;21084;51.098;14.506;2022-07-29T01:39:27;11.73;;;4.03;;
34872;SDS011;21084;51.098;14.506;2022-07-29T01:41:34;10.10;;;4.00;;
34872;SDS011;21084;51.098;14.506;2022-07-29T01:43:40;7.07;;;3.80;;
34872;SDS011;21084;51.098;14.506;2022-07-29T01:45:46;7.45;;;3.40;;
34872;SDS011;21084;51.098;14.506;2022-07-29T01:47:51;9.85;;;3.22;;
34872;SDS011;21084;51.098;14.506;2022-07-29T01:49:56;8.50;;;3.60;;
34872;SDS011;21084;51.098;14.506;2022-07-29T01:52:01;8.63;;;3.60;;
34872;SDS011;21084;51.098;14.506;2022-07-29T01:54:06;12.30;;;4.20;;
34872;SDS011;21084;51.098;14.506;2022-07-29T01:56:10;15.63;;;3.47;;
34872;SDS011;21084;51.098;14.506;2022-07-29T01:58:12;11.27;;;3.88;;
34872;SDS011;21084;51.098;14.506;2022-07-29T02:00:16;7.90;;;3.63;;
34872;SDS011;21084;51.098;14.506;2022-07-29T02:02:19;7.32;;;3.50;;
34872;SDS011;21084;51.098;14.506;2022-07-29T02:04:22;10.55;;;4.13;;
34872;SDS011;21084;51.098;14.506;2022-07-29T02:06:30;8.63;;;4.05;;
34872;SDS011;21084;51.098;14.506;2022-07-29T02:08:34;9.20;;;3.60;;
34872;SDS011;21084;51.098;14.506;2022-07-29T02:10:38;9.75;;;4.10;;
34872;SDS011;21084;51.098;14.506;2022-07-29T02:12:42;7.40;;;4.13;;
34872;SDS011;21084;51.098;14.506;2022-07-29T02:14:52;9.48;;;3.65;;
34872;SDS011;21084;51.098;14.506;2022-07-29T02:16:54;7.45;;;3.40;;
34872;SDS011;21084;51.098;14.506;2022-07-29T02:19:00;8.38;;;3.97;;
34872;SDS011;21084;51.098;14.506;2022-07-29T02:21:02;11.20;;;3.58;;
34872;SDS011;21084;51.098;14.506;2022-07-29T02:23:05;6.82;;;3.50;;
34872;SDS011;21084;51.098;14.506;2022-07-29T02:25:08;11.65;;;3.83;;
34872;SDS011;21084;51.098;14.506;2022-07-29T02:27:14;10.55;;;3.60;;
34872;SDS011;21084;51.098;14.506;2022-07-29T02:29:17;7.18;;;3.80;;
34872;SDS011;21084;51.098;14.506;2022-07-29T02:31:22;9.35;;;3.63;;
34872;SDS011;21084;51.098;14.506;2022-07-29T02:33:26;6.78;;;3.65;;
34872;SDS011;21084;51.098;14.506;2022-07-29T02:35:30;8.50;;;3.85;;
34872;SDS011;21084;51.098;14.506;2022-07-29T02:37:35;12.75;;;4.25;;
34872;SDS011;21084;51.098;14.506;2022-07-29T02:39:38;10.30;;;4.30;;
34872;SDS011;21084;51.098;14.506;2022-07-29T02:41:44;10.07;;;3.78;;
34872;SDS011;21084;51.098;14.506;2022-07-29T02:43:46;10.23;;;3.60;;
34872;SDS011;21084;51.098;14.506;2022-07-29T02:45:49;7.95;;;3.92;;
34872;SDS011;21084;51.098;14.506;2022-07-29T02:47:53;8.38;;;3.60;;
34872;SDS011;21084;51.098;14.506;2022-07-29T02:49:57;7.18;;;4.13;;
34872;SDS011;21084;51.098;14.506;2022-07-29T02:52:03;7.30;;;3.90;;
34872;SDS011;21084;51.098;14.506;2022-07-29T02:54:07;5.40;;;3.65;;
34872;SDS011;21084;51.098;14.506;2022-07-29T02:56:11;16.30;;;4.18;;
34872;SDS011;21084;51.098;14.506;2022-07-29T02:58:15;7.57;;;3.92;;
34872;SDS011;21084;51.098;14.506;2022-07-29T03:00:20;11.00;;;3.75;;
34872;SDS011;21084;51.098;14.506;2022-07-29T03:02:22;6.97;;;4.32;;
34872;SDS011;21084;51.098;14.506;2022-07-29T03:04:25;6.43;;;3.60;;
34872;SDS011;21084;51.098;14.506;2022-07-29T03:06:28;7.57;;;4.15;;
34872;SDS011;21084;51.098;14.506;2022-07-29T03:08:40;9.48;;;3.85;;
34872;SDS011;21084;51.098;14.506;2022-07-29T03:10:44;9.45;;;3.83;;
34872;SDS011;21084;51.098;14.506;2022-07-29T03:12:46;8.73;;;3.55;;
34872;SDS011;21084;51.098;14.506;2022-07-29T03:14:49;10.20;;;3.63;;
34872;SDS011;21084;51.098;14.506;2022-07-29T03:16:51;8.77;;;3.67;;
34872;SDS011;21084;51.098;14.506;2022-07-29T03:18:54;8.88;;;3.67;;
34872;SDS011;21084;51.098;14.506;2022-07-29T03:20:56;7.63;;;3.33;;
34872;SDS011;21084;51.098;14.506;2022-07-29T03:22:59;6.80;;;3.78;;
34872;SDS011;21084;51.098;14.506;2022-07-29T03:25:08;7.80;;;4.03;;
34872;SDS011;21084;51.098;14.506;2022-07-29T03:27:10;7.57;;;3.95;;
34872;SDS011;21084;51.098;14.506;2022-07-29T03:29:13;8.93;;;3.65;;
34872;SDS011;21084;51.098;14.506;2022-07-29T03:31:15;8.30;;;3.53;;
34872;SDS011;21084;51.098;14.506;2022-07-29T03:33:17;9.95;;;4.10;;
34872;SDS011;21084;51.098;14.506;2022-07-29T03:35:20;9.30;;;3.90;;
34872;SDS011;21084;51.098;14.506;2022-07-29T03:37:22;8.95;;;4.03;;
34872;SDS011;21084;51.098;14.506;2022-07-29T03:39:25;17.10;;;4.65;;
34872;SDS011;21084;51.098;14.506;2022-07-29T03:41:30;7.65;;;3.55;;
34872;SDS011;21084;51.098;14.506;2022-07-29T03:43:34;16.10;;;4.32;;
34872;SDS011;21084;51.098;14.506;2022-07-29T03:45:37;10.55;;;3.80;;
34872;SDS011;21084;51.098;14.506;2022-07-29T03:47:42;12.45;;;4.30;;
34872;SDS011;21084;51.098;14.506;2022-07-29T03:49:52;10.45;;;4.00;;
34872;SDS011;21084;51.098;14.506;2022-07-29T03:51:55;7.25;;;3.90;;
34872;SDS011;21084;51.098;14.506;2022-07-29T03:53:57;6.63;;;3.60;;
34872;SDS011;21084;51.098;14.506;2022-07-29T03:56:00;11.32;;;3.72;;
34872;SDS011;21084;51.098;14.506;2022-07-29T03:58:05;10.95;;;4.03;;
34872;SDS011;21084;51.098;14.506;2022-07-29T04:00:08;12.57;;;4.30;;
34872;SDS011;21084;51.098;14.506;2022-07-29T04:02:11;7.00;;;3.70;;
34872;SDS011;21084;51.098;14.506;2022-07-29T04:04:16;9.65;;;3.88;;
34872;SDS011;21084;51.098;14.506;2022-07-29T04:06:18;7.47;;;3.60;;
34872;SDS011;21084;51.098;14.506;2022-07-29T04:08:21;6.97;;;3.60;;
34872;SDS011;21084;51.098;14.506;2022-07-29T04:10:23;7.07;;;3.90;;
34872;SDS011;21084;51.098;14.506;2022-07-29T04:12:32;6.90;;;3.63;;
34872;SDS011;21084;51.098;14.506;2022-07-29T04:14:35;8.60;;;3.78;;
34872;SDS011;21084;51.098;14.506;2022-07-29T04:16:38;6.65;;;3.90;;
34872;SDS011;21084;51.098;14.506;2022-07-29T04:18:40;7.20;;;4.40;;
34872;SDS011;21084;51.098;14.506;2022-07-29T04:20:42;10.90;;;3.83;;
34872;SDS011;21084;51.098;14.506;2022-07-29T04:22:44;6.65;;;3.50;;
34872;SDS011;21084;51.098;14.506;2022-07-29T04:24:46;9.50;;;4.00;;
34872;SDS011;21084;51.098;14.506;2022-07-29T04:26:49;11.88;;;4.00;;
34872;SDS011;21084;51.098;14.506;2022-07-29T04:28:51;5.53;;;4.07;;
34872;SDS011;21084;51.098;14.506;2022-07-29T04:30:54;8.50;;;3.80;;
34872;SDS011;21084;51.098;14.506;2022-07-29T04:32:57;6.70;;;3.97;;
34872;SDS011;21084;51.098;14.506;2022-07-29T04:34:59;15.98;;;3.80;;
34872;SDS011;21084;51.098;14.506;2022-07-29T04:37:01;7.55;;;4.07;;
34872;SDS011;21084;51.098;14.506;2022-07-29T04:39:03;8.30;;;4.03;;
34872;SDS011;21084;51.098;14.506;2022-07-29T04:41:05;8.82;;;4.25;;
34872;SDS011;21084;51.098;14.506;2022-07-29T04:43:07;11.30;;;4.13;;
34872;SDS011;21084;51.098;14.506;2022-07-29T04:45:12;9.15;;;3.95;;
34872;SDS011;21084;51.098;14.506;2022-07-29T04:47:15;5.93;;;3.88;;
34872;SDS011;21084;51.098;14.506;2022-07-29T04:49:17;6.97;;;3.58;;
34872;SDS011;21084;51.098;14.506;2022-07-29T04:51:20;10.40;;;4.05;;
34872;SDS011;21084;51.098;14.506;2022-07-29T04:53:22;8.02;;;4.10;;
34872;SDS011;21084;51.098;14.506;2022-07-29T04:55:24;8.07;;;3.92;;
34872;SDS011;21084;51.098;14.506;2022-07-29T04:57:26;7.65;;;3.75;;
34872;SDS011;21084;51.098;14.506;2022-07-29T04:59:28;11.02;;;4.10;;
34872;SDS011;21084;51.098;14.506;2022-07-29T05:01:30;9.85;;;4.03;;
34872;SDS011;21084;51.098;14.506;2022-07-29T05:03:34;10.15;;;4.30;;
34872;SDS011;21084;51.098;14.506;2022-07-29T05:05:36;6.10;;;4.00;;
34872;SDS011;21084;51.098;14.506;2022-07-29T05:07:38;10.10;;;3.97;;
34872;SDS011;21084;51.098;14.506;2022-07-29T05:09:40;10.45;;;3.90;;
34872;SDS011;21084;51.098;14.506;2022-07-29T05:11:43;10.70;;;4.07;;
34872;SDS011;21084;51.098;14.506;2022-07-29T05:13:45;11.65;;;4.93;;
34872;SDS011;21084;51.098;14.506;2022-07-29T05:15:47;8.52;;;4.15;;
34872;SDS011;21084;51.098;14.506;2022-07-29T05:17:49;9.52;;;4.50;;
34872;SDS011;21084;51.098;14.506;2022-07-29T05:19:53;10.85;;;4.72;;
34872;SDS011;21084;51.098;14.506;2022-07-29T05:21:55;9.88;;;4.50;;
34872;SDS011;21084;51.098;14.506;2022-07-29T05:23:57;11.55;;;4.18;;
34872;SDS011;21084;51.098;14.506;2022-07-29T05:25:59;11.55;;;4.38;;
34872;SDS011;21084;51.098;14.506;2022-07-29T05:28:01;11.85;;;4.40;;
34872;SDS011;21084;51.098;14.506;2022-07-29T05:30:04;9.85;;;4.30;;
34872;SDS011;21084;51.098;14.506;2022-07-29T05:32:06;10.95;;;4.03;;
34872;SDS011;21084;51.098;14.506;2022-07-29T05:34:08;7.63;;;3.95;;
34872;SDS011;21084;51.098;14.506;2022-07-29T05:36:12;8.18;;;3.78;;
34872;SDS011;21084;51.098;14.506;2022-07-29T05:38:14;6.47;;;3.80;;
34872;SDS011;21084;51.098;14.506;2022-07-29T05:40:16;6.95;;;4.18;;
34872;SDS011;21084;51.098;14.506;2022-07-29T05:42:18;8.55;;;4.40;;
34872;SDS011;21084;51.098;14.506;2022-07-29T05:44:20;9.15;;;4.20;;
34872;SDS011;21084;51.098;14.506;2022-07-29T05:46:25;9.27;;;4.50;;
34872;SDS011;21084;51.098;14.506;2022-07-29T05:48:27;10.55;;;4.00;;
34872;SDS011;21084;51.098;14.506;2022-07-29T05:50:30;11.77;;;4.35;;
34872;SDS011;21084;51.098;14.506;2022-07-29T05:52:33;10.35;;;4.22;;
34872;SDS011;21084;51.098;14.506;2022-07-29T05:54:35;8.30;;;4.00;;
34872;SDS011;21084;51.098;14.506;2022-07-29T05:56:37;17.13;;;4.53;;
34872;SDS011;21084;51.098;14.506;2022-07-29T05:58:40;24.30;;;5.72;;
34872;SDS011;21084;51.098;14.506;2022-07-29T06:00:42;21.02;;;4.20;;
34872;SDS011;21084;51.098;14.506;2022-07-29T06:02:45;10.88;;;4.10;;
34872;SDS011;21084;51.098;14.506;2022-07-29T06:04:49;15.57;;;4.30;;
34872;SDS011;21084;51.098;14.506;2022-07-29T06:06:51;15.57;;;4.25;;
34872;SDS011;21084;51.098;14.506;2022-07-29T06:08:54;9.32;;;4.28;;
34872;SDS011;21084;51.098;14.506;2022-07-29T06:10:56;8.85;;;3.55;;
34872;SDS011;21084;51.098;14.506;2022-07-29T06:12:58;16.13;;;3.92;;
34872;SDS011;21084;51.098;14.506;2022-07-29T06:15:01;10.50;;;3.75;;
34872;SDS011;21084;51.098;14.506;2022-07-29T06:17:03;9.90;;;4.05;;
34872;SDS011;21084;51.098;14.506;2022-07-29T06:19:05;7.10;;;3.60;;
34872;SDS011;21084;51.098;14.506;2022-07-29T06:21:09;15.10;;;3.88;;
34872;SDS011;21084;51.098;14.506;2022-07-29T06:23:12;10.82;;;3.40;;
34872;SDS011;21084;51.098;14.506;2022-07-29T06:25:15;13.25;;;3.33;;
34872;SDS011;21084;51.098;14.506;2022-07-29T06:27:17;9.07;;;3.70;;
34872;SDS011;21084;51.098;14.506;2022-07-29T06:29:19;12.35;;;3.83;;
34872;SDS011;21084;51.098;14.506;2022-07-29T06:31:21;7.55;;;3.33;;
34872;SDS011;21084;51.098;14.506;2022-07-29T06:33:24;7.78;;;3.42;;
34872;SDS011;21084;51.098;14.506;2022-07-29T06:35:26;11.35;;;3.20;;
34872;SDS011;21084;51.098;14.506;2022-07-29T06:37:42;13.15;;;3.55;;
34872;SDS011;21084;51.098;14.506;2022-07-29T06:39:46;12.43;;;3.53;;
34872;SDS011;21084;51.098;14.506;2022-07-29T06:41:50;7.68;;;2.95;;
34872;SDS011;21084;51.098;14.506;2022-07-29T06:43:52;6.28;;;3.10;;
34872;SDS011;21084;51.098;14.506;2022-07-29T06:45:58;12.90;;;3.60;;
34872;SDS011;21084;51.098;14.506;2022-07-29T06:48:00;8.32;;;2.95;;
34872;SDS011;21084;51.098;14.506;2022-07-29T06:50:03;8.80;;;2.80;;
34872;SDS011;21084;51.098;14.506;2022-07-29T06:52:08;8.10;;;3.00;;
34872;SDS011;21084;51.098;14.506;2022-07-29T06:54:10;9.73;;;3.38;;
34872;SDS011;21084;51.098;14.506;2022-07-29T06:56:12;8.73;;;2.97;;
34872;SDS011;21084;51.098;14.506;2022-07-29T06:58:15;5.90;;;2.97;;
34872;SDS011;21084;51.098;14.506;2022-07-29T07:00:18;6.72;;;2.88;;
34872;SDS011;21084;51.098;14.506;2022-07-29T07:02:20;11.02;;;2.90;;
34872;SDS011;21084;51.098;14.506;2022-07-29T07:04:22;5.82;;;2.50;;
34872;SDS011;21084;51.098;14.506;2022-07-29T07:06:24;7.78;;;2.90;;
34872;SDS011;21084;51.098;14.506;2022-07-29T07:08:26;9.80;;;3.13;;
34872;SDS011;21084;51.098;14.506;2022-07-29T07:10:28;8.50;;;2.92;;
34872;SDS011;21084;51.098;14.506;2022-07-29T07:12:31;6.10;;;2.80;;
34872;SDS011;21084;51.098;14.506;2022-07-29T07:14:34;7.43;;;3.30;;
34872;SDS011;21084;51.098;14.506;2022-07-29T07:16:36;8.13;;;2.72;;
34872;SDS011;21084;51.098;14.506;2022-07-29T07:18:39;9.02;;;3.33;;
34872;SDS011;21084;51.098;14.506;2022-07-29T07:20:41;7.10;;;3.17;;
34872;SDS011;21084;51.098;14.506;2022-07-29T07:22:43;9.77;;;3.10;;
34872;SDS011;21084;51.098;14.506;2022-07-29T07:24:46;6.18;;;3.20;;
34872;SDS011;21084;51.098;14.506;2022-07-29T07:26:48;6.57;;;3.00;;
34872;SDS011;21084;51.098;14.506;2022-07-29T07:28:50;10.52;;;3.40;;
34872;SDS011;21084;51.098;14.506;2022-07-29T07:30:54;5.50;;;3.10;;
34872;SDS011;21084;51.098;14.506;2022-07-29T07:32:56;6.35;;;2.88;;
34872;SDS011;21084;51.098;14.506;2022-07-29T07:34:58;9.10;;;3.40;;
34872;SDS011;21084;51.098;14.506;2022-07-29T07:37:00;6.57;;;2.80;;
34872;SDS011;21084;51.098;14.506;2022-07-29T07:39:02;10.45;;;2.60;;
34872;SDS011;21084;51.098;14.506;2022-07-29T07:41:05;8.88;;;2.65;;
34872;SDS011;21084;51.098;14.506;2022-07-29T07:43:07;6.90;;;2.67;;
34872;SDS011;21084;51.098;14.506;2022-07-29T07:45:09;4.93;;;2.35;;
34872;SDS011;21084;51.098;14.506;2022-07-29T07:47:17;6.88;;;2.28;;
34872;SDS011;21084;51.098;14.506;2022-07-29T07:49:20;7.35;;;2.22;;
34872;SDS011;21084;51.098;14.506;2022-07-29T07:51:22;9.35;;;2.15;;
34872;SDS011;21084;51.098;14.506;2022-07-29T07:53:24;3.20;;;1.90;;
34872;SDS011;21084;51.098;14.506;2022-07-29T07:55:27;5.57;;;2.05;;
34872;SDS011;21084;51.098;14.506;2022-07-29T07:57:32;9.75;;;2.50;;
34872;SDS011;21084;51.098;14.506;2022-07-29T07:59:34;11.30;;;2.58;;
34872;SDS011;21084;51.098;14.506;2022-07-29T08:01:37;7.55;;;2.20;;
34872;SDS011;21084;51.098;14.506;2022-07-29T08:03:57;4.68;;;2.05;;
34872;SDS011;21084;51.098;14.506;2022-07-29T08:05:59;7.85;;;2.20;;
34872;SDS011;21084;51.098;14.506;2022-07-29T08:08:01;12.23;;;2.20;;
34872;SDS011;21084;51.098;14.506;2022-07-29T08:10:04;5.68;;;2.22;;
34872;SDS011;21084;51.098;14.506;2022-07-29T08:12:06;8.05;;;2.53;;
34872;SDS011;21084;51.098;14.506;2022-07-29T08:14:09;5.05;;;2.50;;
34872;SDS011;21084;51.098;14.506;2022-07-29T08:16:14;8.10;;;2.40;;
34872;SDS011;21084;51.098;14.506;2022-07-29T08:18:16;6.10;;;2.10;;
34872;SDS011;21084;51.098;14.506;2022-07-29T08:20:19;10.02;;;2.28;;
34872;SDS011;21084;51.098;14.506;2022-07-29T08:22:22;8.82;;;2.53;;
34872;SDS011;21084;51.098;14.506;2022-07-29T08:24:24;6.82;;;2.25;;
34872;SDS011;21084;51.098;14.506;2022-07-29T08:26:26;6.13;;;2.13;;
34872;SDS011;21084;51.098;14.506;2022-07-29T08:28:28;7.15;;;2.35;;
34872;SDS011;21084;51.098;14.506;2022-07-29T08:30:30;8.27;;;2.55;;
34872;SDS011;21084;51.098;14.506;2022-07-29T08:32:32;5.35;;;2.40;;
34872;SDS011;21084;51.098;14.506;2022-07-29T08:34:53;12.10;;;2.55;;
34872;SDS011;21084;51.098;14.506;2022-07-29T08:36:57;5.65;;;1.90;;
34872;SDS011;21084;51.098;14.506;2022-07-29T08:38:59;5.00;;;2.40;;
34872;SDS011;21084;51.098;14.506;2022-07-29T08:41:01;4.70;;;2.00;;
34872;SDS011;21084;51.098;14.506;2022-07-29T08:43:04;5.18;;;2.30;;
34872;SDS011;21084;51.098;14.506;2022-07-29T08:45:07;9.43;;;2.25;;
34872;SDS011;21084;51.098;14.506;2022-07-29T08:47:09;7.97;;;2.38;;
34872;SDS011;21084;51.098;14.506;2022-07-29T08:49:12;5.00;;;2.20;;
34872;SDS011;21084;51.098;14.506;2022-07-29T08:51:14;5.65;;;2.30;;
34872;SDS011;21084;51.098;14.506;2022-07-29T08:53:18;7.28;;;2.53;;
34872;SDS011;21084;51.098;14.506;2022-07-29T08:55:20;4.90;;;2.60;;
34872;SDS011;21084;51.098;14.506;2022-07-29T08:57:23;6.72;;;2.40;;
34872;SDS011;21084;51.098;14.506;2022-07-29T08:59:27;5.55;;;2.40;;
34872;SDS011;21084;51.098;14.506;2022-07-29T09:01:32;5.18;;;2.47;;
34872;SDS011;21084;51.098;14.506;2022-07-29T09:03:37;11.15;;;3.13;;
34872;SDS011;21084;51.098;14.506;2022-07-29T09:05:40;6.18;;;2.38;;
34872;SDS011;21084;51.098;14.506;2022-07-29T09:07:48;6.55;;;2.45;;
34872;SDS011;21084;51.098;14.506;2022-07-29T09:09:51;5.60;;;2.40;;
34872;SDS011;21084;51.098;14.506;2022-07-29T09:11:56;6.50;;;2.45;;
34872;SDS011;21084;51.098;14.506;2022-07-29T09:13:58;5.35;;;2.78;;
34872;SDS011;21084;51.098;14.506;2022-07-29T09:16:00;8.40;;;2.53;;
34872;SDS011;21084;51.098;14.506;2022-07-29T09:18:09;11.82;;;3.63;;
34872;SDS011;21084;51.098;14.506;2022-07-29T09:20:31;8.07;;;2.40;;
34872;SDS011;21084;51.098;14.506;2022-07-29T09:22:33;6.72;;;2.70;;
34872;SDS011;21084;51.098;14.506;2022-07-29T09:24:42;12.13;;;3.13;;
34872;SDS011;21084;51.098;14.506;2022-07-29T09:26:46;9.75;;;2.83;;
34872;SDS011;21084;51.098;14.506;2022-07-29T09:28:48;7.30;;;2.53;;
34872;SDS011;21084;51.098;14.506;2022-07-29T09:30:51;7.10;;;2.60;;
34872;SDS011;21084;51.098;14.506;2022-07-29T09:32:54;6.88;;;2.80;;
34872;SDS011;21084;51.098;14.506;2022-07-29T09:35:15;8.50;;;3.00;;
34872;SDS011;21084;51.098;14.506;2022-07-29T09:37:25;8.48;;;2.83;;
34872;SDS011;21084;51.098;14.506;2022-07-29T09:39:28;3.90;;;2.30;;
34872;SDS011;21084;51.098;14.506;2022-07-29T09:41:56;7.78;;;2.67;;
34872;SDS011;21084;51.098;14.506;2022-07-29T09:43:59;8.13;;;3.00;;
34872;SDS011;21084;51.098;14.506;2022-07-29T09:46:11;16.80;;;3.15;;
34872;SDS011;21084;51.098;14.506;2022-07-29T09:48:14;5.25;;;2.40;;
34872;SDS011;21084;51.098;14.506;2022-07-29T09:50:16;13.32;;;2.90;;
34872;SDS011;21084;51.098;14.506;2022-07-29T09:52:21;10.73;;;2.40;;
34872;SDS011;21084;51.098;14.506;2022-07-29T09:54:23;6.72;;;3.10;;
34872;SDS011;21084;51.098;14.506;2022-07-29T09:56:37;5.88;;;2.80;;
34872;SDS011;21084;51.098;14.506;2022-07-29T09:58:41;9.15;;;3.25;;
34872;SDS011;21084;51.098;14.506;2022-07-29T10:00:44;7.32;;;3.05;;
34872;SDS011;21084;51.098;14.506;2022-07-29T10:02:47;9.82;;;3.22;;
34872;SDS011;21084;51.098;14.506;2022-07-29T10:04:49;8.43;;;3.20;;
34872;SDS011;21084;51.098;14.506;2022-07-29T10:06:58;6.65;;;3.10;;
34872;SDS011;21084;51.098;14.506;2022-07-29T10:09:08;8.77;;;3.03;;
34872;SDS011;21084;51.098;14.506;2022-07-29T10:11:11;12.00;;;2.75;;
34872;SDS011;21084;51.098;14.506;2022-07-29T10:13:13;6.40;;;2.85;;
34872;SDS011;21084;51.098;14.506;2022-07-29T10:15:18;5.88;;;2.78;;
34872;SDS011;21084;51.098;14.506;2022-07-29T10:17:21;7.03;;;3.45;;
34872;SDS011;21084;51.098;14.506;2022-07-29T10:19:23;5.03;;;3.20;;
34872;SDS011;21084;51.098;14.506;2022-07-29T10:21:25;8.55;;;3.13;;
34872;SDS011;21084;51.098;14.506;2022-07-29T10:23:36;5.15;;;2.90;;
34872;SDS011;21084;51.098;14.506;2022-07-29T10:25:47;9.60;;;2.92;;
34872;SDS011;21084;51.098;14.506;2022-07-29T10:27:49;6.97;;;2.85;;
34872;SDS011;21084;51.098;14.506;2022-07-29T10:29:53;7.63;;;3.05;;
34872;SDS011;21084;51.098;14.506;2022-07-29T10:32:00;9.23;;;3.40;;
34872;SDS011;21084;51.098;14.506;2022-07-29T10:34:12;12.20;;;3.13;;
34872;SDS011;21084;51.098;14.506;2022-07-29T10:36:24;6.07;;;3.10;;
34872;SDS011;21084;51.098;14.506;2022-07-29T10:38:36;7.68;;;2.78;;
34872;SDS011;21084;51.098;14.506;2022-07-29T10:40:51;10.10;;;3.03;;
34872;SDS011;21084;51.098;14.506;2022-07-29T10:42:57;8.70;;;2.90;;
34872;SDS011;21084;51.098;14.506;2022-07-29T10:45:03;7.20;;;3.25;;
34872;SDS011;21084;51.098;14.506;2022-07-29T10:47:07;7.07;;;2.97;;
34872;SDS011;21084;51.098;14.506;2022-07-29T10:49:11;9.25;;;3.10;;
34872;SDS011;21084;51.098;14.506;2022-07-29T10:51:15;6.20;;;3.13;;
34872;SDS011;21084;51.098;14.506;2022-07-29T10:53:18;4.53;;;3.05;;
34872;SDS011;21084;51.098;14.506;2022-07-29T10:55:33;5.07;;;2.47;;
34872;SDS011;21084;51.098;14.506;2022-07-29T10:57:36;7.57;;;3.58;;
34872;SDS011;21084;51.098;14.506;2022-07-29T11:05:01;5.50;;;2.85;;
34872;SDS011;21084;51.098;14.506;2022-07-29T11:07:07;6.97;;;2.60;;
34872;SDS011;21084;51.098;14.506;2022-07-29T11:09:15;5.18;;;3.15;;
34872;SDS011;21084;51.098;14.506;2022-07-29T11:11:32;8.20;;;2.72;;
34872;SDS011;21084;51.098;14.506;2022-07-29T11:13:50;10.05;;;3.40;;
34872;SDS011;21084;51.098;14.506;2022-07-29T11:15:55;5.47;;;2.47;;
34872;SDS011;21084;51.098;14.506;2022-07-29T11:18:06;11.00;;;3.35;;
34872;SDS011;21084;51.098;14.506;2022-07-29T11:20:34;4.38;;;2.58;;
34872;SDS011;21084;51.098;14.506;2022-07-29T11:22:38;6.80;;;2.83;;
34872;SDS011;21084;51.098;14.506;2022-07-29T11:24:47;5.47;;;2.42;;
34872;SDS011;21084;51.098;14.506;2022-07-29T11:27:12;6.68;;;2.92;;
34872;SDS011;21084;51.098;14.506;2022-07-29T11:29:19;6.07;;;2.63;;
34872;SDS011;21084;51.098;14.506;2022-07-29T11:31:33;3.75;;;2.25;;
34872;SDS011;21084;51.098;14.506;2022-07-29T11:33:35;4.88;;;2.72;;
34872;SDS011;21084;51.098;14.506;2022-07-29T11:36:11;11.80;;;2.95;;
34872;SDS011;21084;51.098;14.506;2022-07-29T11:38:23;4.93;;;2.42;;
34872;SDS011;21084;51.098;14.506;2022-07-29T11:40:59;6.55;;;2.47;;
34872;SDS011;21084;51.098;14.506;2022-07-29T11:45:45;4.57;;;2.60;;
34872;SDS011;21084;51.098;14.506;2022-07-29T11:47:51;3.87;;;2.60;;
34872;SDS011;21084;51.098;14.506;2022-07-29T11:49:54;4.97;;;2.58;;
34872;SDS011;21084;51.098;14.506;2022-07-29T11:52:01;5.78;;;2.58;;
34872;SDS011;21084;51.098;14.506;2022-07-29T11:54:04;4.53;;;2.60;;
34872;SDS011;21084;51.098;14.506;2022-07-29T11:56:15;8.23;;;2.60;;
34872;SDS011;21084;51.098;14.506;2022-07-29T11:58:25;4.35;;;2.40;;
34872;SDS011;21084;51.098;14.506;2022-07-29T12:00:30;4.93;;;2.50;;
34872;SDS011;21084;51.098;14.506;2022-07-29T12:02:38;5.10;;;2.40;;
34872;SDS011;21084;51.098;14.506;2022-07-29T12:04:48;7.95;;;2.75;;
34872;SDS011;21084;51.098;14.506;2022-07-29T12:06:50;5.80;;;2.80;;
34872;SDS011;21084;51.098;14.506;2022-07-29T12:08:53;5.38;;;2.72;;
34872;SDS011;21084;51.098;14.506;2022-07-29T12:10:55;11.35;;;2.55;;
34872;SDS011;21084;51.098;14.506;2022-07-29T12:12:57;6.00;;;2.53;;
34872;SDS011;21084;51.098;14.506;2022-07-29T12:15:10;5.78;;;2.50;;
34872;SDS011;21084;51.098;14.506;2022-07-29T12:17:24;3.55;;;2.33;;
34872;SDS011;21084;51.098;14.506;2022-07-29T12:19:30;9.93;;;2.53;;
34872;SDS011;21084;51.098;14.506;2022-07-29T12:21:45;6.85;;;2.40;;
34872;SDS011;21084;51.098;14.506;2022-07-29T12:23:57;7.45;;;2.55;;